Time;durP1;ratioP1;P1;durP2;ratioP2;P2;SDS_P1;SDS_P2;PMS_P1;PMS_P2;Temp;Humidity;BMP_temperature;BMP_pressure;BME280_temperature;BME280_humidity;BME280_pressure;Samples;Min_cycle;Max_cycle;Signal;HPM_P1;HPM_P2
2021/08/07 00:00:22;;;;;;;;;;;;;;;21.55;49.95;100390.44;5112386;28;19924;-62
2021/08/07 00:02:51;;;;;;;;;;;;;;;21.57;50.04;100391.19;5106495;27;19924;-62
2021/08/07 00:05:19;;;;;;;;;;;;;;;21.55;50.08;100399.38;5106789;27;19966;-61
2021/08/07 00:07:49;;;;;;;;;;;;;;;21.57;49.77;100410.03;5105005;27;19927;-61
2021/08/07 00:10:18;;;;;;;;;;;;;;;21.58;50.11;100405.50;5104910;27;19928;-61
2021/08/07 00:12:45;;;;;;;;;;;;;;;21.58;49.64;100411.75;5103908;28;19985;-61
2021/08/07 00:15:14;;;;;;;;;;;;;;;21.60;50.18;100408.94;5105862;28;20308;-61
2021/08/07 00:17:41;;;;;;;;;;;;;;;21.60;49.73;100408.94;5107599;27;20072;-62
2021/08/07 00:20:10;;;;;;;;;;;;;;;21.61;50.11;100400.72;5107472;27;20000;-62
2021/08/07 00:22:38;;;;;;;;;;;;;;;21.62;49.86;100396.22;5110618;27;19984;-61
2021/08/07 00:25:08;;;;;;;;;;;;;;;21.62;50.06;100385.47;5107893;28;19927;-61
2021/08/07 00:27:36;;;;;;;;;;;;;;;21.62;49.98;100389.00;5110596;27;19934;-61
2021/08/07 00:30:05;;;;;;;;;;;;;;;21.63;50.31;100382.63;5105933;28;19923;-62
2021/08/07 00:32:33;;;;;;;;;;;;;;;21.64;50.17;100384.34;5138140;27;20034;-62
2021/08/07 00:35:03;;;;;;;;;;;;;;;21.64;50.10;100383.47;5108568;28;20360;-61
2021/08/07 00:37:32;;;;;;;;;;;;;;;21.65;50.18;100382.50;5123225;27;19924;-61
2021/08/07 00:40:06;;;;;;;;;;;;;;;21.65;49.95;100382.50;5123530;27;19924;-61
2021/08/07 00:42:37;;;;;;;;;;;;;;;21.67;50.13;100384.09;5133750;27;19934;-61
2021/08/07 00:45:32;;;;;;;;;;;;;;;21.67;49.85;100384.09;5105854;28;19935;-61
2021/08/07 00:48:01;;;;;;;;;;;;;;;21.68;50.01;100379.56;5107672;28;19963;-61
2021/08/07 00:50:38;;;;;;;;;;;;;;;21.70;50.09;100372.22;5105945;28;20034;-61
2021/08/07 00:53:08;;;;;;;;;;;;;;;21.69;50.34;100374.03;5112033;28;19928;-60
2021/08/07 00:55:36;;;;;;;;;;;;;;;21.69;50.11;100365.97;5123973;27;19924;-60
2021/08/07 00:58:09;;;;;;;;;;;;;;;21.72;50.49;100372.94;5108576;28;19931;-61
2021/08/07 01:00:37;;;;;;;;;;;;;;;21.70;50.53;100367.69;5106224;28;19954;-61
2021/08/07 01:03:07;;;;;;;;;;;;;;;21.71;50.31;100369.41;5110847;28;19924;-61
2021/08/07 01:05:42;;;;;;;;;;;;;;;21.73;50.23;100363.91;5104605;27;20023;-60
2021/08/07 01:08:15;;;;;;;;;;;;;;;21.73;50.31;100363.91;5112229;27;19943;-61
2021/08/07 01:10:47;;;;;;;;;;;;;;;21.73;50.18;100361.22;5114933;27;19982;-61
2021/08/07 01:13:22;;;;;;;;;;;;;;;21.74;50.25;100356.69;5112906;27;19928;-60
2021/08/07 01:15:54;;;;;;;;;;;;;;;21.74;50.16;100351.31;5135865;27;19938;-61
2021/08/07 01:18:28;;;;;;;;;;;;;;;21.75;49.92;100350.31;5109107;27;19924;-60
2021/08/07 01:20:59;;;;;;;;;;;;;;;21.75;50.11;100343.09;5142535;27;19939;-60
2021/08/07 01:23:40;;;;;;;;;;;;;;;21.76;50.49;100342.13;5111054;27;19955;-60
2021/08/07 01:26:12;;;;;;;;;;;;;;;21.76;50.29;100336.75;5104944;28;19928;-61
2021/08/07 01:28:50;;;;;;;;;;;;;;;21.77;50.49;100338.44;5112777;27;20116;-60
2021/08/07 01:31:23;;;;;;;;;;;;;;;21.77;50.44;100327.66;5110041;27;19928;-61
2021/08/07 01:33:55;;;;;;;;;;;;;;;21.78;50.67;100328.53;5109966;27;20383;-61
2021/08/07 01:36:35;;;;;;;;;;;;;;;21.77;50.64;100324.97;5108490;27;19923;-63
2021/08/07 01:39:04;;;;;;;;;;;;;;;21.78;50.53;100321.31;5111815;27;19976;-63
2021/08/07 01:41:32;;;;;;;;;;;;;;;21.79;50.41;100314.13;5109231;27;19963;-63
2021/08/07 01:44:24;;;;;;;;;;;;;;;21.79;50.54;100314.97;5110357;27;19952;-63
2021/08/07 01:46:57;;;;;;;;;;;;;;;21.80;50.54;100318.50;5113314;27;20049;-63
2021/08/07 01:49:34;;;;;;;;;;;;;;;21.80;50.60;100313.97;5110597;27;19931;-64
2021/08/07 01:52:06;;;;;;;;;;;;;;;21.81;50.51;100312.13;5112703;27;19928;-62
2021/08/07 01:54:48;;;;;;;;;;;;;;;21.81;50.60;100306.75;5112767;27;19928;-63
2021/08/07 01:57:18;;;;;;;;;;;;;;;21.81;50.50;100304.91;5124390;27;19977;-63
2021/08/07 01:59:49;;;;;;;;;;;;;;;21.83;50.17;100310.19;5145870;27;19928;-63
2021/08/07 02:02:18;;;;;;;;;;;;;;;21.83;50.80;100299.41;5113906;28;19931;-64
2021/08/07 02:04:50;;;;;;;;;;;;;;;21.82;50.79;100293.16;5107538;27;20015;-63
2021/08/07 02:07:23;;;;;;;;;;;;;;;21.82;50.74;100290.47;5112241;27;20000;-64
2021/08/07 02:09:58;;;;;;;;;;;;;;;21.83;50.78;100286.78;5110333;27;19964;-63
2021/08/07 02:12:28;;;;;;;;;;;;;;;21.83;50.92;100283.25;5109310;27;20018;-63
2021/08/07 02:15:06;;;;;;;;;;;;;;;21.83;50.88;100280.56;5109615;27;19925;-64
2021/08/07 02:17:36;;;;;;;;;;;;;;;21.83;50.49;100285.94;5136363;27;19950;-63
2021/08/07 02:20:05;;;;;;;;;;;;;;;21.83;50.71;100289.50;5143182;27;19924;-64
2021/08/07 02:22:34;;;;;;;;;;;;;;;21.83;50.74;100278.72;5141060;27;20042;-63
2021/08/07 02:25:02;;;;;;;;;;;;;;;21.84;50.71;100277.75;5109897;28;19939;-63
2021/08/07 02:27:43;;;;;;;;;;;;;;;21.85;50.79;100279.47;5109000;27;20062;-63
2021/08/07 02:30:14;;;;;;;;;;;;;;;21.86;50.82;100285.69;5125903;27;19975;-63
2021/08/07 02:32:46;;;;;;;;;;;;;;;21.85;50.68;100270.50;5106109;27;19943;-63
2021/08/07 02:35:15;;;;;;;;;;;;;;;21.85;50.86;100274.06;5110913;27;19927;-64
2021/08/07 02:37:43;;;;;;;;;;;;;;;21.86;50.92;100270.38;5107603;27;19955;-63
2021/08/07 02:40:14;;;;;;;;;;;;;;;21.86;50.88;100265.00;5143231;27;20019;-63
2021/08/07 02:42:49;;;;;;;;;;;;;;;21.87;50.74;100260.47;5138762;27;20011;-63
2021/08/07 02:45:19;;;;;;;;;;;;;;;21.87;50.22;100269.41;5120321;27;19931;-63
2021/08/07 02:47:50;;;;;;;;;;;;;;;21.87;50.99;100269.41;5107268;28;19967;-64
2021/08/07 02:50:20;;;;;;;;;;;;;;;21.87;50.95;100282.88;5139961;27;19949;-64
2021/08/07 02:52:50;;;;;;;;;;;;;;;21.88;51.13;100278.34;5135924;27;19943;-63
2021/08/07 02:55:22;;;;;;;;;;;;;;;21.88;51.03;100270.28;5109555;27;19982;-63
2021/08/07 02:57:59;;;;;;;;;;;;;;;21.88;50.83;100267.59;5108468;27;19927;-63
2021/08/07 03:00:33;;;;;;;;;;;;;;;21.88;50.88;100265.72;5105158;28;19924;-64
2021/08/07 03:03:03;;;;;;;;;;;;;;;21.90;50.94;100265.59;5139863;27;19939;-64
2021/08/07 03:05:31;;;;;;;;;;;;;;;21.91;51.01;100263.78;5105067;28;20372;-63
2021/08/07 03:08:01;;;;;;;;;;;;;;;21.90;51.02;100262.91;5109295;27;20065;-63
2021/08/07 03:10:32;;;;;;;;;;;;;;;21.91;51.03;100261.09;5104573;27;19924;-63
2021/08/07 03:13:02;;;;;;;;;;;;;;;21.90;50.77;100260.22;5124188;27;19938;-63
2021/08/07 03:15:34;;;;;;;;;;;;;;;21.92;50.94;100260.09;5109020;27;19959;-63
2021/08/07 03:18:02;;;;;;;;;;;;;;;21.92;50.94;100265.47;5138436;27;20435;-63
2021/08/07 03:20:34;;;;;;;;;;;;;;;21.91;50.93;100258.41;5104627;27;19946;-63
2021/08/07 03:23:08;;;;;;;;;;;;;;;21.91;50.84;100264.63;5139632;27;19927;-63
2021/08/07 03:25:40;;;;;;;;;;;;;;;21.92;50.54;100254.69;5110024;27;19927;-63
2021/08/07 03:28:15;;;;;;;;;;;;;;;21.92;50.26;100254.69;5105907;27;19924;-64
2021/08/07 03:30:45;;;;;;;;;;;;;;;21.93;51.11;100257.28;5107225;27;19928;-64
2021/08/07 03:33:13;;;;;;;;;;;;;;;21.92;50.92;100260.97;5102432;28;19928;-63
2021/08/07 03:35:41;;;;;;;;;;;;;;;21.94;51.23;100260.81;5110737;27;19947;-63
2021/08/07 03:38:10;;;;;;;;;;;;;;;21.93;51.14;100268.06;5122021;27;20325;-63
2021/08/07 03:40:38;;;;;;;;;;;;;;;21.94;51.15;100266.22;5106335;27;19970;-63
2021/08/07 03:43:13;;;;;;;;;;;;;;;21.93;50.99;100268.06;5140858;27;19962;-63
2021/08/07 03:45:41;;;;;;;;;;;;;;;21.94;51.28;100271.59;5103691;27;19924;-63
2021/08/07 03:48:11;;;;;;;;;;;;;;;21.95;51.16;100267.94;5112703;27;19938;-63
2021/08/07 03:50:44;;;;;;;;;;;;;;;21.95;51.12;100266.06;5114220;27;19974;-63
2021/08/07 03:53:18;;;;;;;;;;;;;;;21.95;51.39;100270.63;5109621;27;19974;-63
2021/08/07 03:55:48;;;;;;;;;;;;;;;21.95;51.33;100268.78;5115889;27;19930;-63
2021/08/07 03:58:17;;;;;;;;;;;;;;;21.95;51.27;100262.53;5105526;27;19971;-63
2021/08/07 04:00:54;;;;;;;;;;;;;;;21.94;50.81;100269.75;5108701;27;19958;-64
2021/08/07 04:03:31;;;;;;;;;;;;;;;21.95;50.83;100268.78;5133886;27;19937;-64
2021/08/07 04:06:01;;;;;;;;;;;;;;;21.96;50.71;100269.63;5109907;28;19924;-64
2021/08/07 04:08:31;;;;;;;;;;;;;;;21.96;50.53;100264.22;5107417;28;19988;-63
2021/08/07 04:11:00;;;;;;;;;;;;;;;21.96;50.38;100264.22;5106411;27;19950;-63
2021/08/07 04:13:34;;;;;;;;;;;;;;;21.96;50.48;100261.53;5104383;27;19928;-64
2021/08/07 04:16:04;;;;;;;;;;;;;;;21.96;50.97;100259.72;5108911;28;19931;-63
2021/08/07 04:18:33;;;;;;;;;;;;;;;21.97;50.58;100263.25;5107941;28;20295;-63
2021/08/07 04:21:02;;;;;;;;;;;;;;;21.97;50.87;100264.13;5134106;27;19943;-63
2021/08/07 04:23:30;;;;;;;;;;;;;;;21.97;50.57;100261.44;5112096;28;19935;-63
2021/08/07 04:25:58;;;;;;;;;;;;;;;21.97;50.54;100264.13;5104879;28;20192;-63
2021/08/07 04:28:27;;;;;;;;;;;;;;;21.99;50.60;100264.00;5136739;27;20967;-62
2021/08/07 04:30:56;;;;;;;;;;;;;;;21.99;50.46;100259.44;5136028;27;19928;-63
2021/08/07 04:33:25;;;;;;;;;;;;;;;21.99;50.74;100256.75;5137743;27;19955;-63
2021/08/07 04:35:55;;;;;;;;;;;;;;;22.00;50.49;100254.94;5114185;28;19966;-63
2021/08/07 04:38:24;;;;;;;;;;;;;;;22.01;50.47;100245.84;5106460;28;19995;-63
2021/08/07 04:40:54;;;;;;;;;;;;;;;22.02;50.42;100252.94;5106443;27;19931;-63
2021/08/07 04:43:31;;;;;;;;;;;;;;;22.02;50.63;100250.25;5109412;27;19995;-63
2021/08/07 04:45:59;;;;;;;;;;;;;;;22.03;50.57;100252.81;5105702;27;20434;-62
2021/08/07 04:48:28;;;;;;;;;;;;;;;22.03;50.50;100254.66;5115966;27;19930;-63
2021/08/07 04:51:10;;;;;;;;;;;;;;;22.03;50.39;100258.22;5117604;27;19928;-63
2021/08/07 04:53:42;;;;;;;;;;;;;;;22.03;50.49;100254.66;5111887;27;19946;-62
2021/08/07 04:56:18;;;;;;;;;;;;;;;22.03;50.71;100252.81;5107508;28;20496;-63
2021/08/07 04:58:47;;;;;;;;;;;;;;;22.03;50.67;100250.13;5144634;27;19935;-63
2021/08/07 05:01:20;;;;;;;;;;;;;;;22.03;50.52;100244.75;5116249;27;19927;-64
2021/08/07 05:03:50;;;;;;;;;;;;;;;22.05;50.56;100247.34;5115446;27;19942;-64
2021/08/07 05:06:21;;;;;;;;;;;;;;;22.04;50.59;100246.47;5122355;27;19970;-62
2021/08/07 05:08:49;;;;;;;;;;;;;;;22.04;50.23;100249.16;5126311;27;20037;-64
2021/08/07 05:11:17;;;;;;;;;;;;;;;22.05;49.03;100244.63;5109490;28;19931;-63
2021/08/07 05:13:45;;;;;;;;;;;;;;;22.05;49.54;100240.09;5110962;27;19942;-63
2021/08/07 05:16:16;;;;;;;;;;;;;;;22.07;50.07;100242.66;5106556;27;19943;-64
2021/08/07 05:18:45;;;;;;;;;;;;;;;22.07;49.45;100239.97;5106171;27;19928;-64
2021/08/07 05:21:13;;;;;;;;;;;;;;;22.07;49.49;100237.28;5142106;27;19932;-64
2021/08/07 05:23:44;;;;;;;;;;;;;;;22.08;50.57;100236.28;5107002;28;19932;-63
2021/08/07 05:26:13;;;;;;;;;;;;;;;22.08;50.64;100236.28;5113350;27;20424;-63
2021/08/07 05:28:42;;;;;;;;;;;;;;;22.08;50.84;100240.84;5114256;27;19931;-63
2021/08/07 05:31:10;;;;;;;;;;;;;;;22.07;50.48;100226.50;5109702;27;19930;-64
2021/08/07 05:33:39;;;;;;;;;;;;;;;22.07;50.80;100237.28;5110657;27;20042;-64
2021/08/07 05:36:08;;;;;;;;;;;;;;;22.07;50.59;100233.72;5111632;27;19991;-64
2021/08/07 05:38:36;;;;;;;;;;;;;;;22.08;50.66;100241.69;5110110;27;19935;-63
2021/08/07 05:41:07;;;;;;;;;;;;;;;22.09;50.68;100231.75;5110147;27;19934;-63
2021/08/07 05:43:37;;;;;;;;;;;;;;;22.08;50.62;100232.75;5126618;27;19994;-63
2021/08/07 05:46:05;;;;;;;;;;;;;;;22.08;51.10;100230.91;5111285;27;19927;-63
2021/08/07 05:48:33;;;;;;;;;;;;;;;22.08;51.09;100238.16;5106600;28;20037;-64
2021/08/07 05:51:01;;;;;;;;;;;;;;;22.09;51.24;100237.13;5110843;27;19931;-64
2021/08/07 05:53:29;;;;;;;;;;;;;;;22.08;51.21;100241.69;5109715;27;20604;-63
2021/08/07 05:55:58;;;;;;;;;;;;;;;22.09;51.20;100239.81;5110460;27;20424;-64
2021/08/07 05:58:30;;;;;;;;;;;;;;;22.08;51.42;100240.84;5115107;27;19970;-64
2021/08/07 06:00:58;;;;;;;;;;;;;;;22.10;51.16;100241.53;5110802;27;19931;-64
2021/08/07 06:03:26;;;;;;;;;;;;;;;22.09;51.16;100240.69;5108705;28;19938;-64
2021/08/07 06:05:54;;;;;;;;;;;;;;;22.09;51.23;100240.69;5108370;28;20463;-63
2021/08/07 06:08:23;;;;;;;;;;;;;;;22.09;51.14;100246.09;5116729;27;19927;-63
2021/08/07 06:10:51;;;;;;;;;;;;;;;22.09;51.20;100242.53;5111616;27;19928;-63
2021/08/07 06:13:20;;;;;;;;;;;;;;;22.10;51.02;100245.09;5115440;27;20027;-63
2021/08/07 06:15:49;;;;;;;;;;;;;;;22.11;50.72;100245.97;5111320;27;19939;-63
2021/08/07 06:18:18;;;;;;;;;;;;;;;22.10;49.97;100242.38;5130347;27;19980;-64
2021/08/07 06:20:46;;;;;;;;;;;;;;;22.10;50.42;100242.38;5113202;27;19996;-63
2021/08/07 06:23:15;;;;;;;;;;;;;;;22.12;50.22;100235.03;5110679;27;20444;-64
2021/08/07 06:25:44;;;;;;;;;;;;;;;22.13;50.69;100236.75;5108779;27;19942;-63
2021/08/07 06:28:12;;;;;;;;;;;;;;;22.14;50.83;100234.91;5108393;27;19928;-63
2021/08/07 06:30:46;;;;;;;;;;;;;;;22.14;50.40;100238.47;5139419;27;19939;-64
2021/08/07 06:33:21;;;;;;;;;;;;;;;22.14;50.28;100241.16;5106011;27;19971;-64
2021/08/07 06:35:50;;;;;;;;;;;;;;;22.14;50.86;100243.88;5112220;27;19924;-64
2021/08/07 06:38:18;;;;;;;;;;;;;;;22.15;51.06;100252.78;5109920;27;20296;-63
2021/08/07 06:40:46;;;;;;;;;;;;;;;22.15;51.16;100250.09;5112131;27;19932;-64
2021/08/07 06:43:18;;;;;;;;;;;;;;;22.15;51.34;100248.25;5109409;27;19989;-63
2021/08/07 06:46:02;;;;;;;;;;;;;;;22.15;51.29;100237.47;5104758;27;20172;-63
2021/08/07 06:48:33;;;;;;;;;;;;;;;22.16;51.07;100239.19;5105251;27;19931;-63
2021/08/07 06:51:01;;;;;;;;;;;;;;;22.17;51.10;100243.59;5111445;27;19939;-65
2021/08/07 06:53:29;;;;;;;;;;;;;;;22.18;50.79;100231.84;5104192;27;19938;-68
2021/08/07 06:55:58;;;;;;;;;;;;;;;22.20;50.94;100240.63;5138478;27;19965;-65
2021/08/07 06:58:26;;;;;;;;;;;;;;;22.24;51.41;100240.41;5109479;28;20417;-63
2021/08/07 07:00:54;;;;;;;;;;;;;;;22.26;52.31;100239.28;5108767;27;19928;-67
2021/08/07 07:03:23;;;;;;;;;;;;;;;20.40;55.49;100240.63;5108004;27;19995;-63
2021/08/07 07:05:52;;;;;;;;;;;;;;;20.27;53.21;100242.53;5106103;27;19929;-58
2021/08/07 07:08:20;;;;;;;;;;;;;;;20.45;50.15;100242.97;5111866;28;19981;-65
2021/08/07 07:10:48;;;;;;;;;;;;;;;20.34;49.57;100235.75;5103710;28;19932;-62
2021/08/07 07:13:16;;;;;;;;;;;;;;;20.18;48.88;100240.56;5103515;28;19932;-62
2021/08/07 07:15:44;;;;;;;;;;;;;;;20.33;50.72;100235.81;5121436;27;19924;-67
2021/08/07 07:18:12;;;;;;;;;;;;;;;20.52;51.07;100240.66;5107370;28;19931;-71
2021/08/07 07:20:42;;;;;;;;;;;;;;;20.61;51.38;100247.16;5109640;27;19932;-71
2021/08/07 07:23:14;;;;;;;;;;;;;;;20.57;50.66;100249.22;5107818;28;19927;-69
2021/08/07 07:25:43;;;;;;;;;;;;;;;20.46;49.14;100254.56;5142650;27;19938;-67
2021/08/07 07:28:11;;;;;;;;;;;;;;;20.46;48.17;100252.75;5103670;28;19981;-66
2021/08/07 07:30:39;;;;;;;;;;;;;;;20.40;46.84;100256.72;5109470;28;19932;-65
2021/08/07 07:33:07;;;;;;;;;;;;;;;20.33;46.22;100252.81;5112791;28;19943;-66
2021/08/07 07:35:35;;;;;;;;;;;;;;;20.26;46.04;100253.41;5106206;28;20741;-67
2021/08/07 07:38:03;;;;;;;;;;;;;;;20.28;48.51;100259.53;5103948;28;19938;-66
2021/08/07 07:40:34;;;;;;;;;;;;;;;20.21;46.83;100253.75;5105061;28;19931;-67
2021/08/07 07:43:02;;;;;;;;;;;;;;;20.27;45.84;100258.66;5102604;28;20340;-67
2021/08/07 07:45:30;;;;;;;;;;;;;;;20.29;44.98;100258.53;5103904;28;19927;-69
2021/08/07 07:48:02;;;;;;;;;;;;;;;20.23;44.71;100259.84;5105418;28;20026;-65
2021/08/07 07:50:30;;;;;;;;;;;;;;;20.26;44.83;100253.41;5103501;28;19931;-74
2021/08/07 07:53:01;;;;;;;;;;;;;;;20.15;47.82;100254.22;5110735;28;20482;-69
2021/08/07 07:55:30;;;;;;;;;;;;;;;20.10;48.16;100253.72;5123727;27;20038;-68
2021/08/07 07:58:01;;;;;;;;;;;;;;;20.06;48.25;100251.25;5103488;28;19973;-67
2021/08/07 08:00:32;;;;;;;;;;;;;;;20.00;46.51;100259.78;5109804;28;20000;-67
2021/08/07 08:03:02;;;;;;;;;;;;;;;20.06;45.83;100256.59;5108491;28;19949;-68
2021/08/07 08:05:38;;;;;;;;;;;;;;;20.05;44.65;100248.66;5108393;28;19950;-67
2021/08/07 08:08:08;;;;;;;;;;;;;;;20.13;43.98;100250.78;5139992;27;19927;-65
2021/08/07 08:10:38;;;;;;;;;;;;;;;20.10;43.73;100256.41;5103591;28;19928;-67
2021/08/07 08:13:11;;;;;;;;;;;;;;;19.92;46.58;100240.69;5107264;27;19924;-66
2021/08/07 08:15:40;;;;;;;;;;;;;;;19.87;44.73;100234.78;5107239;28;19932;-67
2021/08/07 08:18:11;;;;;;;;;;;;;;;19.87;44.52;100235.66;5109113;28;19942;-66
2021/08/07 08:20:41;;;;;;;;;;;;;;;20.03;43.88;100237.22;5141968;27;19938;-70
2021/08/07 08:23:09;;;;;;;;;;;;;;;20.08;43.51;100235.03;5108607;28;19934;-73
2021/08/07 08:25:38;;;;;;;;;;;;;;;19.99;45.48;100235.72;5107745;28;19928;-72
2021/08/07 08:28:06;;;;;;;;;;;;;;;20.05;45.84;100233.44;5137614;27;19953;-67
2021/08/07 08:30:39;;;;;;;;;;;;;;;20.10;44.33;100224.19;5107078;28;19931;-68
2021/08/07 08:33:09;;;;;;;;;;;;;;;20.00;43.39;100227.56;5108903;28;19963;-66
2021/08/07 08:35:38;;;;;;;;;;;;;;;19.94;43.60;100219.97;5111952;28;19966;-68
2021/08/07 08:38:06;;;;;;;;;;;;;;;20.01;43.38;100223.03;5103670;28;19935;-68
2021/08/07 08:40:34;;;;;;;;;;;;;;;19.82;43.18;100221.72;5105373;28;19927;-67
2021/08/07 08:43:03;;;;;;;;;;;;;;;19.79;45.51;100218.38;5142531;27;19931;-66
2021/08/07 08:45:31;;;;;;;;;;;;;;;19.69;45.45;100224.44;5114162;28;19931;-66
2021/08/07 08:48:01;;;;;;;;;;;;;;;19.81;43.53;100227.19;5106141;28;19928;-70
2021/08/07 08:50:32;;;;;;;;;;;;;;;19.83;43.12;100220.78;5105082;28;20001;-67
2021/08/07 08:53:02;;;;;;;;;;;;;;;19.84;43.17;100225.19;5137696;27;19973;-66
2021/08/07 08:55:32;;;;;;;;;;;;;;;19.88;43.14;100223.97;5104498;28;20009;-67
2021/08/07 08:58:03;;;;;;;;;;;;;;;19.99;44.71;100227.69;5122936;28;20045;-68
2021/08/07 09:00:32;;;;;;;;;;;;;;;19.71;45.63;100221.63;5106642;28;19985;-64
2021/08/07 09:03:01;;;;;;;;;;;;;;;19.79;45.99;100226.44;5114323;28;19931;-65
2021/08/07 09:05:30;;;;;;;;;;;;;;;19.71;46.00;100224.31;5114572;28;19923;-69
2021/08/07 09:07:58;;;;;;;;;;;;;;;19.66;45.76;100231.84;5103417;28;19939;-67
2021/08/07 09:10:28;;;;;;;;;;;;;;;19.82;43.94;100235.16;5122293;27;19989;-71
2021/08/07 09:13:03;;;;;;;;;;;;;;;19.81;43.36;100225.38;5141564;27;20372;-65
2021/08/07 09:15:34;;;;;;;;;;;;;;;19.77;43.18;100225.72;5104445;28;19924;-69
2021/08/07 09:18:14;;;;;;;;;;;;;;;19.72;43.02;100228.72;5110521;28;19924;-69
2021/08/07 09:20:50;;;;;;;;;;;;;;;19.80;44.73;100229.00;5138923;27;19975;-64
2021/08/07 09:23:29;;;;;;;;;;;;;;;19.70;45.58;100228.84;5104354;28;19927;-66
2021/08/07 09:26:11;;;;;;;;;;;;;;;19.56;45.01;100220.94;5106767;27;19924;-70
2021/08/07 09:28:43;;;;;;;;;;;;;;;19.68;43.69;100225.41;5115819;27;20016;-67
2021/08/07 09:31:18;;;;;;;;;;;;;;;19.75;43.35;100225.78;5115666;27;19983;-66
2021/08/07 09:33:47;;;;;;;;;;;;;;;19.63;42.77;100224.88;5109200;27;19946;-64
2021/08/07 09:36:17;;;;;;;;;;;;;;;19.55;42.57;100222.78;5109317;27;20534;-66
2021/08/07 09:38:47;;;;;;;;;;;;;;;19.51;44.58;100232.00;5112650;27;19954;-64
2021/08/07 09:41:15;;;;;;;;;;;;;;;19.56;42.96;100234.38;5108631;27;19985;-65
2021/08/07 09:43:54;;;;;;;;;;;;;;;19.60;43.25;100225.13;5144311;27;19943;-65
2021/08/07 09:46:25;;;;;;;;;;;;;;;19.55;43.38;100230.84;5107774;28;19924;-65
2021/08/07 09:49:07;;;;;;;;;;;;;;;19.37;44.99;100233.03;5119476;28;20035;-66
2021/08/07 09:51:36;;;;;;;;;;;;;;;19.39;46.32;100231.06;5117286;28;20269;-65
2021/08/07 09:54:15;;;;;;;;;;;;;;;19.35;46.94;100236.78;5104649;28;19932;-64
2021/08/07 09:56:48;;;;;;;;;;;;;;;19.38;48.18;100229.38;5116894;27;19928;-65
2021/08/07 09:59:17;;;;;;;;;;;;;;;19.36;47.25;100231.31;5116120;27;19935;-66
2021/08/07 10:01:46;;;;;;;;;;;;;;;19.39;48.40;100217.66;5104028;28;19991;-69
2021/08/07 10:04:17;;;;;;;;;;;;;;;19.64;49.91;100221.22;5107647;27;19931;-64
2021/08/07 10:06:51;;;;;;;;;;;;;;;20.17;48.83;100214.66;5109569;28;19928;-65
2021/08/07 10:09:30;;;;;;;;;;;;;;;20.54;49.09;100207.31;5110556;28;19928;-66
2021/08/07 10:12:02;;;;;;;;;;;;;;;20.90;48.73;100210.78;5132805;27;19991;-66
2021/08/07 10:14:31;;;;;;;;;;;;;;;20.94;49.14;100210.56;5133426;27;20763;-65
2021/08/07 10:17:00;;;;;;;;;;;;;;;20.97;50.09;100213.88;5103028;28;19946;-67
2021/08/07 10:19:31;;;;;;;;;;;;;;;21.08;51.20;100209.44;5109922;28;19939;-66
2021/08/07 10:21:59;;;;;;;;;;;;;;;21.17;50.97;100211.41;5107887;27;19985;-65
2021/08/07 10:24:29;;;;;;;;;;;;;;;21.18;51.19;100205.03;5105874;28;19928;-65
2021/08/07 10:26:58;;;;;;;;;;;;;;;21.17;51.50;100209.59;5114004;28;19935;-65
2021/08/07 10:29:30;;;;;;;;;;;;;;;21.15;52.15;100199.94;5103914;28;19928;-68
2021/08/07 10:32:02;;;;;;;;;;;;;;;21.19;52.82;100193.31;5134488;27;19958;-70
2021/08/07 10:34:32;;;;;;;;;;;;;;;21.19;53.04;100185.25;5107185;28;20027;-69
2021/08/07 10:37:00;;;;;;;;;;;;;;;21.37;52.71;100188.28;5108656;28;22461;-66
2021/08/07 10:39:31;;;;;;;;;;;;;;;21.59;51.74;100189.22;5108234;28;19924;-68
2021/08/07 10:42:00;;;;;;;;;;;;;;;21.67;51.26;100184.09;5139654;27;19927;-68
2021/08/07 10:44:31;;;;;;;;;;;;;;;21.61;51.60;100184.59;5106342;28;20016;-67
2021/08/07 10:47:00;;;;;;;;;;;;;;;21.78;52.12;100183.19;5104939;28;19957;-68
2021/08/07 10:49:36;;;;;;;;;;;;;;;21.87;51.33;100177.03;5104984;28;19938;-66
2021/08/07 10:52:20;;;;;;;;;;;;;;;21.92;50.60;100172.09;5103633;27;19924;-68
2021/08/07 10:54:48;;;;;;;;;;;;;;;21.97;51.00;100174.41;5111401;27;20125;-68
2021/08/07 10:57:31;;;;;;;;;;;;;;;21.77;51.68;100171.53;5110826;27;19927;-67
2021/08/07 10:59:59;;;;;;;;;;;;;;;21.68;51.93;100175.88;5111614;27;19999;-68
2021/08/07 11:02:27;;;;;;;;;;;;;;;21.77;52.07;100170.69;5110936;27;19928;-68
2021/08/07 11:04:57;;;;;;;;;;;;;;;21.65;51.99;100170.72;5107534;27;19962;-69
2021/08/07 11:07:25;;;;;;;;;;;;;;;21.59;52.52;100170.38;5104752;27;19955;-70
2021/08/07 11:10:05;;;;;;;;;;;;;;;21.58;53.23;100165.97;5109120;27;19928;-68
2021/08/07 11:12:34;;;;;;;;;;;;;;;21.55;52.75;100167.09;5106268;27;19999;-69
2021/08/07 11:15:10;;;;;;;;;;;;;;;21.62;53.07;100167.47;5107823;27;19928;-69
2021/08/07 11:17:45;;;;;;;;;;;;;;;21.62;52.96;100162.91;5108456;27;20306;-70
2021/08/07 11:20:31;;;;;;;;;;;;;;;21.61;52.94;100161.22;5110977;27;19938;-71
2021/08/07 11:23:11;;;;;;;;;;;;;;;21.60;53.16;100161.34;5095583;27;20003;-69
2021/08/07 11:25:52;;;;;;;;;;;;;;;21.59;53.32;100162.31;5112449;28;19935;-68
2021/08/07 11:28:21;;;;;;;;;;;;;;;21.60;53.29;100169.41;5098515;28;20003;-69
2021/08/07 11:30:50;;;;;;;;;;;;;;;21.62;53.29;100156.69;5107811;28;19939;-68
2021/08/07 11:33:25;;;;;;;;;;;;;;;21.65;53.18;100153.75;5105029;28;19928;-69
2021/08/07 11:36:04;;;;;;;;;;;;;;;21.67;53.29;100152.63;5102244;28;19978;-70
2021/08/07 11:38:34;;;;;;;;;;;;;;;21.73;53.21;100151.25;5105496;27;19945;-69
2021/08/07 11:41:03;;;;;;;;;;;;;;;21.86;52.99;100148.38;5104009;28;19928;-65
2021/08/07 11:43:33;;;;;;;;;;;;;;;22.11;52.29;100140.91;5106893;27;20024;-69
2021/08/07 11:46:05;;;;;;;;;;;;;;;21.94;52.40;100145.88;5105286;27;19962;-70
2021/08/07 11:48:34;;;;;;;;;;;;;;;21.85;53.38;100149.38;5101673;27;19927;-70
2021/08/07 11:51:03;;;;;;;;;;;;;;;21.83;52.95;100148.66;5120797;27;19932;-70
2021/08/07 11:53:32;;;;;;;;;;;;;;;21.85;52.83;100147.53;5104719;27;20051;-71
2021/08/07 11:56:02;;;;;;;;;;;;;;;22.11;52.47;100140.91;5107650;27;19928;-66
2021/08/07 11:58:31;;;;;;;;;;;;;;;21.99;53.04;100142.81;5104208;27;19928;-69
2021/08/07 12:01:00;;;;;;;;;;;;;;;22.02;53.29;100138.03;5106710;28;20021;-67
2021/08/07 12:03:38;;;;;;;;;;;;;;;22.10;52.84;100136.50;5106049;28;19951;-70
2021/08/07 12:06:07;;;;;;;;;;;;;;;22.10;53.35;100137.34;5104430;27;19927;-70
2021/08/07 12:08:35;;;;;;;;;;;;;;;22.07;53.13;100134.94;5108332;27;19931;-69
2021/08/07 12:11:06;;;;;;;;;;;;;;;22.32;52.88;100130.13;5108229;27;19928;-67
2021/08/07 12:13:34;;;;;;;;;;;;;;;22.31;52.23;100128.41;5108610;27;19923;-69
2021/08/07 12:16:05;;;;;;;;;;;;;;;21.38;56.32;100142.41;5110430;27;19928;-66
2021/08/07 12:18:42;;;;;;;;;;;;;;;20.79;56.50;100129.31;5104848;27;20005;-69
2021/08/07 12:21:11;;;;;;;;;;;;;;;20.61;56.12;100134.31;5138193;27;20737;-62
2021/08/07 12:23:40;;;;;;;;;;;;;;;20.49;56.21;100136.13;5104892;28;19951;-64
2021/08/07 12:26:13;;;;;;;;;;;;;;;20.44;55.91;100136.47;5102410;28;19935;-63
2021/08/07 12:28:42;;;;;;;;;;;;;;;20.52;55.02;100131.34;5104626;27;19927;-68
2021/08/07 12:31:10;;;;;;;;;;;;;;;20.48;52.00;100132.56;5107288;28;19932;-67
2021/08/07 12:33:40;;;;;;;;;;;;;;;20.38;51.09;100118.16;5106762;28;20253;-62
2021/08/07 12:36:12;;;;;;;;;;;;;;;20.29;50.80;100127.81;5105588;28;19973;-67
2021/08/07 12:38:41;;;;;;;;;;;;;;;20.29;49.78;100130.50;5108715;27;19928;-65
2021/08/07 12:41:09;;;;;;;;;;;;;;;20.31;51.52;100123.16;5106374;28;19983;-61
2021/08/07 12:43:38;;;;;;;;;;;;;;;20.36;51.72;100129.03;5108527;28;20023;-67
2021/08/07 12:46:07;;;;;;;;;;;;;;;20.40;52.77;100130.50;5105796;28;19924;-63
2021/08/07 12:48:47;;;;;;;;;;;;;;;20.44;52.97;100130.25;5109310;28;19925;-65
2021/08/07 12:51:20;;;;;;;;;;;;;;;20.41;53.62;100128.69;5106865;28;19927;-62
2021/08/07 12:53:49;;;;;;;;;;;;;;;20.48;53.86;100131.72;5107226;28;19932;-65